sensor_id;sensor_type;location;lat;lon;timestamp;temperature;humidity
16076;DHT22;8142;48.242;11.644;2023-03-14T00:01:57;10.30;99.90
16076;DHT22;8142;48.242;11.644;2023-03-14T00:04:23;10.30;99.90
16076;DHT22;8142;48.242;11.644;2023-03-14T00:06:49;10.20;99.90
16076;DHT22;8142;48.242;11.644;2023-03-14T00:09:16;10.20;99.90
16076;DHT22;8142;48.242;11.644;2023-03-14T00:11:42;10.10;99.90
16076;DHT22;8142;48.242;11.644;2023-03-14T00:14:08;10.10;99.90
16076;DHT22;8142;48.242;11.644;2023-03-14T00:16:34;10.10;99.90
16076;DHT22;8142;48.242;11.644;2023-03-14T00:19:00;10.00;99.90
16076;DHT22;8142;48.242;11.644;2023-03-14T00:21:26;10.00;99.90
16076;DHT22;8142;48.242;11.644;2023-03-14T00:23:52;10.00;99.90
16076;DHT22;8142;48.242;11.644;2023-03-14T00:26:20;10.00;99.90
16076;DHT22;8142;48.242;11.644;2023-03-14T00:28:47;9.90;99.90
16076;DHT22;8142;48.242;11.644;2023-03-14T00:31:16;10.00;99.90
16076;DHT22;8142;48.242;11.644;2023-03-14T00:33:43;9.90;99.90
16076;DHT22;8142;48.242;11.644;2023-03-14T00:36:17;9.90;99.90
16076;DHT22;8142;48.242;11.644;2023-03-14T00:38:44;10.00;99.90
16076;DHT22;8142;48.242;11.644;2023-03-14T00:41:13;9.90;99.90
16076;DHT22;8142;48.242;11.644;2023-03-14T00:43:39;10.00;99.90
16076;DHT22;8142;48.242;11.644;2023-03-14T00:46:06;10.00;99.90
16076;DHT22;8142;48.242;11.644;2023-03-14T00:48:32;10.00;99.90
16076;DHT22;8142;48.242;11.644;2023-03-14T00:50:58;9.90;99.90
16076;DHT22;8142;48.242;11.644;2023-03-14T00:53:24;10.00;99.90
16076;DHT22;8142;48.242;11.644;2023-03-14T00:55:50;10.00;99.90
16076;DHT22;8142;48.242;11.644;2023-03-14T00:58:17;10.00;99.90
16076;DHT22;8142;48.242;11.644;2023-03-14T01:00:44;10.00;99.90
16076;DHT22;8142;48.242;11.644;2023-03-14T01:03:11;10.00;99.90
16076;DHT22;8142;48.242;11.644;2023-03-14T01:05:37;10.00;99.90
16076;DHT22;8142;48.242;11.644;2023-03-14T01:08:04;10.00;99.90
16076;DHT22;8142;48.242;11.644;2023-03-14T01:10:30;10.10;99.90
16076;DHT22;8142;48.242;11.644;2023-03-14T01:12:56;10.10;99.90
16076;DHT22;8142;48.242;11.644;2023-03-14T01:15:22;10.10;99.90
16076;DHT22;8142;48.242;11.644;2023-03-14T01:17:48;10.10;99.90
16076;DHT22;8142;48.242;11.644;2023-03-14T01:20:14;10.10;99.90
16076;DHT22;8142;48.242;11.644;2023-03-14T01:22:41;10.10;99.90
16076;DHT22;8142;48.242;11.644;2023-03-14T01:25:10;10.10;99.90
16076;DHT22;8142;48.242;11.644;2023-03-14T01:27:36;10.10;99.90
16076;DHT22;8142;48.242;11.644;2023-03-14T01:30:03;10.10;99.90
16076;DHT22;8142;48.242;11.644;2023-03-14T01:32:30;10.10;99.90
16076;DHT22;8142;48.242;11.644;2023-03-14T01:34:56;10.10;99.90
16076;DHT22;8142;48.242;11.644;2023-03-14T01:37:22;10.10;99.90
16076;DHT22;8142;48.242;11.644;2023-03-14T01:39:48;10.10;99.90
16076;DHT22;8142;48.242;11.644;2023-03-14T01:42:14;10.10;99.90
16076;DHT22;8142;48.242;11.644;2023-03-14T01:45:01;10.10;99.90
16076;DHT22;8142;48.242;11.644;2023-03-14T01:47:26;10.10;99.90
16076;DHT22;8142;48.242;11.644;2023-03-14T01:52:29;10.00;99.90
16076;DHT22;8142;48.242;11.644;2023-03-14T01:55:04;10.00;99.90
16076;DHT22;8142;48.242;11.644;2023-03-14T01:57:39;10.00;99.90
16076;DHT22;8142;48.242;11.644;2023-03-14T02:00:07;10.00;99.90
16076;DHT22;8142;48.242;11.644;2023-03-14T02:02:38;9.90;99.90
16076;DHT22;8142;48.242;11.644;2023-03-14T02:05:05;9.90;99.90
16076;DHT22;8142;48.242;11.644;2023-03-14T02:07:37;9.90;99.90
16076;DHT22;8142;48.242;11.644;2023-03-14T02:10:05;9.80;99.90
16076;DHT22;8142;48.242;11.644;2023-03-14T02:12:32;9.80;99.90
16076;DHT22;8142;48.242;11.644;2023-03-14T02:14:59;9.80;99.90
16076;DHT22;8142;48.242;11.644;2023-03-14T02:17:25;9.80;99.90
16076;DHT22;8142;48.242;11.644;2023-03-14T02:22:42;9.70;99.90
16076;DHT22;8142;48.242;11.644;2023-03-14T02:27:50;9.70;99.90
16076;DHT22;8142;48.242;11.644;2023-03-14T02:30:20;9.60;99.90
16076;DHT22;8142;48.242;11.644;2023-03-14T02:32:53;9.60;99.90
16076;DHT22;8142;48.242;11.644;2023-03-14T02:35:27;9.60;99.90
16076;DHT22;8142;48.242;11.644;2023-03-14T02:38:00;9.60;99.90
16076;DHT22;8142;48.242;11.644;2023-03-14T02:40:29;9.50;99.90
16076;DHT22;8142;48.242;11.644;2023-03-14T02:42:55;9.50;99.90
16076;DHT22;8142;48.242;11.644;2023-03-14T02:47:52;9.40;99.90
16076;DHT22;8142;48.242;11.644;2023-03-14T02:50:22;9.40;99.90
16076;DHT22;8142;48.242;11.644;2023-03-14T02:52:50;9.40;99.90
16076;DHT22;8142;48.242;11.644;2023-03-14T02:55:21;9.40;99.90
16076;DHT22;8142;48.242;11.644;2023-03-14T02:57:47;9.40;99.90
16076;DHT22;8142;48.242;11.644;2023-03-14T03:00:13;9.40;99.90
16076;DHT22;8142;48.242;11.644;2023-03-14T03:02:40;9.40;99.90
16076;DHT22;8142;48.242;11.644;2023-03-14T03:05:06;9.40;99.90
16076;DHT22;8142;48.242;11.644;2023-03-14T03:07:32;9.40;99.90
16076;DHT22;8142;48.242;11.644;2023-03-14T03:09:58;9.40;99.90
16076;DHT22;8142;48.242;11.644;2023-03-14T03:12:24;9.40;99.90
16076;DHT22;8142;48.242;11.644;2023-03-14T03:14:50;9.40;99.90
16076;DHT22;8142;48.242;11.644;2023-03-14T03:17:16;9.40;99.90
16076;DHT22;8142;48.242;11.644;2023-03-14T03:19:42;9.40;99.90
16076;DHT22;8142;48.242;11.644;2023-03-14T03:22:08;9.40;99.90
16076;DHT22;8142;48.242;11.644;2023-03-14T03:24:34;9.30;99.90
16076;DHT22;8142;48.242;11.644;2023-03-14T03:27:00;9.40;99.90
16076;DHT22;8142;48.242;11.644;2023-03-14T03:29:26;9.40;99.90
16076;DHT22;8142;48.242;11.644;2023-03-14T03:31:52;9.30;99.90
16076;DHT22;8142;48.242;11.644;2023-03-14T03:34:18;9.30;99.90
16076;DHT22;8142;48.242;11.644;2023-03-14T03:36:44;9.40;99.90
16076;DHT22;8142;48.242;11.644;2023-03-14T03:39:10;9.40;99.90
16076;DHT22;8142;48.242;11.644;2023-03-14T03:41:35;9.30;99.90
16076;DHT22;8142;48.242;11.644;2023-03-14T03:44:01;9.40;99.90
16076;DHT22;8142;48.242;11.644;2023-03-14T03:46:27;9.40;99.90
16076;DHT22;8142;48.242;11.644;2023-03-14T03:48:57;9.30;99.90
16076;DHT22;8142;48.242;11.644;2023-03-14T03:51:24;9.30;99.90
16076;DHT22;8142;48.242;11.644;2023-03-14T03:53:50;9.30;99.90
16076;DHT22;8142;48.242;11.644;2023-03-14T03:56:17;9.30;99.90
16076;DHT22;8142;48.242;11.644;2023-03-14T03:58:42;9.30;99.90
16076;DHT22;8142;48.242;11.644;2023-03-14T04:01:09;9.30;99.90
16076;DHT22;8142;48.242;11.644;2023-03-14T04:03:36;9.30;99.90
16076;DHT22;8142;48.242;11.644;2023-03-14T04:06:07;9.30;99.90
16076;DHT22;8142;48.242;11.644;2023-03-14T04:08:33;9.20;99.90
16076;DHT22;8142;48.242;11.644;2023-03-14T04:11:00;9.20;99.90
16076;DHT22;8142;48.242;11.644;2023-03-14T04:13:27;9.10;99.90
16076;DHT22;8142;48.242;11.644;2023-03-14T04:15:54;9.10;99.90
16076;DHT22;8142;48.242;11.644;2023-03-14T04:18:21;9.00;99.90
16076;DHT22;8142;48.242;11.644;2023-03-14T04:20:57;9.00;99.90
16076;DHT22;8142;48.242;11.644;2023-03-14T04:23:25;9.00;99.90
16076;DHT22;8142;48.242;11.644;2023-03-14T04:25:52;8.90;99.90
16076;DHT22;8142;48.242;11.644;2023-03-14T04:28:18;8.90;99.90
16076;DHT22;8142;48.242;11.644;2023-03-14T04:30:44;8.90;99.90
16076;DHT22;8142;48.242;11.644;2023-03-14T04:33:09;8.90;99.90
16076;DHT22;8142;48.242;11.644;2023-03-14T04:35:36;8.80;99.90
16076;DHT22;8142;48.242;11.644;2023-03-14T04:38:02;8.80;99.90
16076;DHT22;8142;48.242;11.644;2023-03-14T04:40:28;8.80;99.90
16076;DHT22;8142;48.242;11.644;2023-03-14T04:42:54;8.80;99.90
16076;DHT22;8142;48.242;11.644;2023-03-14T04:45:20;8.80;99.90
16076;DHT22;8142;48.242;11.644;2023-03-14T04:47:46;8.70;99.90
16076;DHT22;8142;48.242;11.644;2023-03-14T04:50:11;8.70;99.90
16076;DHT22;8142;48.242;11.644;2023-03-14T04:52:37;8.60;99.90
16076;DHT22;8142;48.242;11.644;2023-03-14T04:55:03;8.60;99.90
16076;DHT22;8142;48.242;11.644;2023-03-14T04:57:29;8.50;99.90
16076;DHT22;8142;48.242;11.644;2023-03-14T04:59:55;8.50;99.90
16076;DHT22;8142;48.242;11.644;2023-03-14T05:02:21;8.50;99.90
16076;DHT22;8142;48.242;11.644;2023-03-14T05:04:47;8.50;99.90
16076;DHT22;8142;48.242;11.644;2023-03-14T05:07:13;8.40;99.90
16076;DHT22;8142;48.242;11.644;2023-03-14T05:09:38;8.40;99.90
16076;DHT22;8142;48.242;11.644;2023-03-14T05:12:04;8.30;99.90
16076;DHT22;8142;48.242;11.644;2023-03-14T05:14:31;8.30;99.90
16076;DHT22;8142;48.242;11.644;2023-03-14T05:16:57;8.30;99.90
16076;DHT22;8142;48.242;11.644;2023-03-14T05:19:23;8.30;99.90
16076;DHT22;8142;48.242;11.644;2023-03-14T05:21:48;8.30;99.90
16076;DHT22;8142;48.242;11.644;2023-03-14T05:24:14;8.30;99.90
16076;DHT22;8142;48.242;11.644;2023-03-14T05:26:40;8.30;99.90
16076;DHT22;8142;48.242;11.644;2023-03-14T05:29:06;8.30;99.90
16076;DHT22;8142;48.242;11.644;2023-03-14T05:31:32;8.40;99.90
16076;DHT22;8142;48.242;11.644;2023-03-14T05:33:58;8.40;99.90
16076;DHT22;8142;48.242;11.644;2023-03-14T05:36:23;8.40;99.90
16076;DHT22;8142;48.242;11.644;2023-03-14T05:38:50;8.40;99.90
16076;DHT22;8142;48.242;11.644;2023-03-14T05:41:16;8.50;99.90
16076;DHT22;8142;48.242;11.644;2023-03-14T05:43:42;8.50;99.90
16076;DHT22;8142;48.242;11.644;2023-03-14T05:46:08;8.50;99.90
16076;DHT22;8142;48.242;11.644;2023-03-14T05:48:33;8.60;99.90
16076;DHT22;8142;48.242;11.644;2023-03-14T05:50:59;8.70;99.90
16076;DHT22;8142;48.242;11.644;2023-03-14T05:53:25;8.60;99.90
16076;DHT22;8142;48.242;11.644;2023-03-14T05:55:53;8.60;99.90
16076;DHT22;8142;48.242;11.644;2023-03-14T05:58:19;8.70;99.90
16076;DHT22;8142;48.242;11.644;2023-03-14T06:00:45;8.70;99.90
16076;DHT22;8142;48.242;11.644;2023-03-14T06:03:11;8.70;99.90
16076;DHT22;8142;48.242;11.644;2023-03-14T06:05:37;8.70;99.90
16076;DHT22;8142;48.242;11.644;2023-03-14T06:08:02;8.70;99.90
16076;DHT22;8142;48.242;11.644;2023-03-14T06:10:28;8.70;99.90
16076;DHT22;8142;48.242;11.644;2023-03-14T06:12:54;8.70;99.90
16076;DHT22;8142;48.242;11.644;2023-03-14T06:15:20;8.80;99.90
16076;DHT22;8142;48.242;11.644;2023-03-14T06:17:46;8.80;99.90
16076;DHT22;8142;48.242;11.644;2023-03-14T06:20:12;8.80;99.90
16076;DHT22;8142;48.242;11.644;2023-03-14T06:22:39;8.80;99.90
16076;DHT22;8142;48.242;11.644;2023-03-14T06:25:06;8.70;99.90
16076;DHT22;8142;48.242;11.644;2023-03-14T06:27:33;8.80;99.90
16076;DHT22;8142;48.242;11.644;2023-03-14T06:29:59;8.80;99.90
16076;DHT22;8142;48.242;11.644;2023-03-14T06:32:25;8.90;99.90
16076;DHT22;8142;48.242;11.644;2023-03-14T06:34:51;8.90;99.90
16076;DHT22;8142;48.242;11.644;2023-03-14T06:37:16;8.90;99.90
16076;DHT22;8142;48.242;11.644;2023-03-14T06:39:42;8.90;99.90
16076;DHT22;8142;48.242;11.644;2023-03-14T06:42:10;8.90;99.90
16076;DHT22;8142;48.242;11.644;2023-03-14T06:44:36;8.90;99.90
16076;DHT22;8142;48.242;11.644;2023-03-14T06:47:02;9.00;99.90
16076;DHT22;8142;48.242;11.644;2023-03-14T06:49:27;9.00;99.90
16076;DHT22;8142;48.242;11.644;2023-03-14T06:51:53;9.00;99.90
16076;DHT22;8142;48.242;11.644;2023-03-14T06:54:19;9.10;99.90
16076;DHT22;8142;48.242;11.644;2023-03-14T06:56:45;9.10;99.90
16076;DHT22;8142;48.242;11.644;2023-03-14T06:59:11;9.10;99.90
16076;DHT22;8142;48.242;11.644;2023-03-14T07:01:37;9.10;99.90
16076;DHT22;8142;48.242;11.644;2023-03-14T07:04:03;9.10;99.90
16076;DHT22;8142;48.242;11.644;2023-03-14T07:06:29;9.10;99.90
16076;DHT22;8142;48.242;11.644;2023-03-14T07:08:55;9.20;99.90
16076;DHT22;8142;48.242;11.644;2023-03-14T07:11:22;9.10;99.90
16076;DHT22;8142;48.242;11.644;2023-03-14T07:13:48;9.10;99.90
16076;DHT22;8142;48.242;11.644;2023-03-14T07:16:14;9.10;99.90
16076;DHT22;8142;48.242;11.644;2023-03-14T07:18:40;9.10;99.90
16076;DHT22;8142;48.242;11.644;2023-03-14T07:21:07;9.10;99.90
16076;DHT22;8142;48.242;11.644;2023-03-14T07:23:33;9.10;99.90
16076;DHT22;8142;48.242;11.644;2023-03-14T07:25:59;9.10;99.90
16076;DHT22;8142;48.242;11.644;2023-03-14T07:28:25;9.20;99.90
16076;DHT22;8142;48.242;11.644;2023-03-14T07:30:53;9.20;99.90
16076;DHT22;8142;48.242;11.644;2023-03-14T07:33:20;9.20;99.90
16076;DHT22;8142;48.242;11.644;2023-03-14T07:35:49;9.20;99.90
16076;DHT22;8142;48.242;11.644;2023-03-14T07:38:15;9.20;99.90
16076;DHT22;8142;48.242;11.644;2023-03-14T07:40:42;9.20;99.90
16076;DHT22;8142;48.242;11.644;2023-03-14T07:43:08;9.20;99.90
16076;DHT22;8142;48.242;11.644;2023-03-14T07:45:33;9.20;99.90
16076;DHT22;8142;48.242;11.644;2023-03-14T07:47:59;9.20;99.90
16076;DHT22;8142;48.242;11.644;2023-03-14T07:50:27;9.20;99.90
16076;DHT22;8142;48.242;11.644;2023-03-14T07:52:54;9.30;99.90
16076;DHT22;8142;48.242;11.644;2023-03-14T07:55:21;9.30;99.90
16076;DHT22;8142;48.242;11.644;2023-03-14T07:57:47;9.30;99.90
16076;DHT22;8142;48.242;11.644;2023-03-14T08:00:13;9.40;99.90
16076;DHT22;8142;48.242;11.644;2023-03-14T08:02:40;9.40;99.90
16076;DHT22;8142;48.242;11.644;2023-03-14T08:05:07;9.40;99.90
16076;DHT22;8142;48.242;11.644;2023-03-14T08:07:33;9.50;99.90
16076;DHT22;8142;48.242;11.644;2023-03-14T08:09:58;9.50;99.90
16076;DHT22;8142;48.242;11.644;2023-03-14T08:12:24;9.60;99.90
16076;DHT22;8142;48.242;11.644;2023-03-14T08:14:50;9.60;99.90
16076;DHT22;8142;48.242;11.644;2023-03-14T08:17:16;9.60;99.90
16076;DHT22;8142;48.242;11.644;2023-03-14T08:19:42;9.70;99.90
16076;DHT22;8142;48.242;11.644;2023-03-14T08:22:08;9.70;99.90
16076;DHT22;8142;48.242;11.644;2023-03-14T08:24:34;9.70;99.90
16076;DHT22;8142;48.242;11.644;2023-03-14T08:27:00;9.70;99.90
16076;DHT22;8142;48.242;11.644;2023-03-14T08:29:26;9.80;99.90
16076;DHT22;8142;48.242;11.644;2023-03-14T08:31:52;9.80;99.90
16076;DHT22;8142;48.242;11.644;2023-03-14T08:34:18;9.90;99.90
16076;DHT22;8142;48.242;11.644;2023-03-14T08:36:44;9.90;99.90
16076;DHT22;8142;48.242;11.644;2023-03-14T08:39:10;9.90;99.90
16076;DHT22;8142;48.242;11.644;2023-03-14T08:41:36;9.90;99.90
16076;DHT22;8142;48.242;11.644;2023-03-14T08:44:10;10.00;99.90
16076;DHT22;8142;48.242;11.644;2023-03-14T08:46:37;10.00;99.90
16076;DHT22;8142;48.242;11.644;2023-03-14T08:49:03;10.00;99.90
16076;DHT22;8142;48.242;11.644;2023-03-14T08:51:29;10.10;99.90
16076;DHT22;8142;48.242;11.644;2023-03-14T08:53:55;10.10;99.90
16076;DHT22;8142;48.242;11.644;2023-03-14T08:56:21;10.10;99.90
16076;DHT22;8142;48.242;11.644;2023-03-14T08:58:47;10.10;99.90
16076;DHT22;8142;48.242;11.644;2023-03-14T09:01:12;10.10;99.90
16076;DHT22;8142;48.242;11.644;2023-03-14T09:03:38;10.10;99.90
16076;DHT22;8142;48.242;11.644;2023-03-14T09:06:06;10.20;99.90
16076;DHT22;8142;48.242;11.644;2023-03-14T09:08:33;10.20;99.90
16076;DHT22;8142;48.242;11.644;2023-03-14T09:11:00;10.20;99.90
16076;DHT22;8142;48.242;11.644;2023-03-14T09:13:25;10.30;99.90
16076;DHT22;8142;48.242;11.644;2023-03-14T09:15:55;10.30;99.90
16076;DHT22;8142;48.242;11.644;2023-03-14T09:18:22;10.40;99.90
16076;DHT22;8142;48.242;11.644;2023-03-14T09:20:49;10.40;99.90
16076;DHT22;8142;48.242;11.644;2023-03-14T09:23:15;10.40;99.90
16076;DHT22;8142;48.242;11.644;2023-03-14T09:25:41;10.40;99.90
16076;DHT22;8142;48.242;11.644;2023-03-14T09:28:07;10.50;99.90
16076;DHT22;8142;48.242;11.644;2023-03-14T09:30:33;10.60;99.90
16076;DHT22;8142;48.242;11.644;2023-03-14T09:32:59;10.50;99.90
16076;DHT22;8142;48.242;11.644;2023-03-14T09:35:25;10.50;99.90
16076;DHT22;8142;48.242;11.644;2023-03-14T09:37:51;10.60;99.90
16076;DHT22;8142;48.242;11.644;2023-03-14T09:40:18;10.60;99.90
16076;DHT22;8142;48.242;11.644;2023-03-14T09:42:48;10.60;99.90
16076;DHT22;8142;48.242;11.644;2023-03-14T09:45:27;10.60;99.90
16076;DHT22;8142;48.242;11.644;2023-03-14T09:47:55;10.70;99.90
16076;DHT22;8142;48.242;11.644;2023-03-14T09:50:23;10.70;99.90
16076;DHT22;8142;48.242;11.644;2023-03-14T09:52:56;10.70;99.90
16076;DHT22;8142;48.242;11.644;2023-03-14T09:55:24;10.70;99.90
16076;DHT22;8142;48.242;11.644;2023-03-14T09:57:54;10.70;99.90
16076;DHT22;8142;48.242;11.644;2023-03-14T10:00:25;10.70;99.90
16076;DHT22;8142;48.242;11.644;2023-03-14T10:05:39;10.70;99.90
16076;DHT22;8142;48.242;11.644;2023-03-14T10:08:05;10.80;99.90
16076;DHT22;8142;48.242;11.644;2023-03-14T10:10:32;10.80;99.90
16076;DHT22;8142;48.242;11.644;2023-03-14T10:13:21;10.80;99.90
16076;DHT22;8142;48.242;11.644;2023-03-14T10:15:55;10.80;99.90
16076;DHT22;8142;48.242;11.644;2023-03-14T10:18:24;10.80;99.90
16076;DHT22;8142;48.242;11.644;2023-03-14T10:23:33;10.80;99.90
16076;DHT22;8142;48.242;11.644;2023-03-14T10:28:51;10.90;99.90
16076;DHT22;8142;48.242;11.644;2023-03-14T10:31:18;10.90;99.90
16076;DHT22;8142;48.242;11.644;2023-03-14T10:33:58;11.00;99.90
16076;DHT22;8142;48.242;11.644;2023-03-14T10:36:27;11.10;99.90
16076;DHT22;8142;48.242;11.644;2023-03-14T10:39:16;11.20;99.90
16076;DHT22;8142;48.242;11.644;2023-03-14T10:41:50;11.20;99.90
16076;DHT22;8142;48.242;11.644;2023-03-14T10:44:22;11.30;99.90
16076;DHT22;8142;48.242;11.644;2023-03-14T10:47:19;11.40;99.90
16076;DHT22;8142;48.242;11.644;2023-03-14T10:49:46;11.50;99.90
16076;DHT22;8142;48.242;11.644;2023-03-14T10:52:20;11.50;99.90
16076;DHT22;8142;48.242;11.644;2023-03-14T10:55:00;11.60;99.90
16076;DHT22;8142;48.242;11.644;2023-03-14T10:57:26;11.50;99.90
16076;DHT22;8142;48.242;11.644;2023-03-14T10:59:55;11.50;99.90
16076;DHT22;8142;48.242;11.644;2023-03-14T11:02:39;11.50;99.90
16076;DHT22;8142;48.242;11.644;2023-03-14T11:05:18;11.50;99.90
16076;DHT22;8142;48.242;11.644;2023-03-14T11:07:45;11.60;99.90
16076;DHT22;8142;48.242;11.644;2023-03-14T11:10:34;11.50;99.90
16076;DHT22;8142;48.242;11.644;2023-03-14T11:15:57;11.50;99.90
16076;DHT22;8142;48.242;11.644;2023-03-14T11:26:33;11.80;99.90
16076;DHT22;8142;48.242;11.644;2023-03-14T11:29:12;11.80;99.90
16076;DHT22;8142;48.242;11.644;2023-03-14T11:31:44;11.80;99.90
16076;DHT22;8142;48.242;11.644;2023-03-14T11:37:00;11.90;99.90
16076;DHT22;8142;48.242;11.644;2023-03-14T11:39:39;12.00;99.90
16076;DHT22;8142;48.242;11.644;2023-03-14T11:42:15;12.00;99.90
16076;DHT22;8142;48.242;11.644;2023-03-14T11:44:46;12.00;99.90
16076;DHT22;8142;48.242;11.644;2023-03-14T11:47:17;12.00;99.90
16076;DHT22;8142;48.242;11.644;2023-03-14T11:52:21;12.10;99.90
16076;DHT22;8142;48.242;11.644;2023-03-14T11:55:00;12.10;99.90
16076;DHT22;8142;48.242;11.644;2023-03-14T11:57:30;12.10;99.90
16076;DHT22;8142;48.242;11.644;2023-03-14T12:00:04;12.00;99.90
16076;DHT22;8142;48.242;11.644;2023-03-14T12:05:36;12.00;99.90
16076;DHT22;8142;48.242;11.644;2023-03-14T12:13:12;12.00;99.90
16076;DHT22;8142;48.242;11.644;2023-03-14T12:15:41;12.00;99.90
16076;DHT22;8142;48.242;11.644;2023-03-14T12:18:20;12.00;99.90
16076;DHT22;8142;48.242;11.644;2023-03-14T12:21:10;11.90;99.90
16076;DHT22;8142;48.242;11.644;2023-03-14T12:42:01;12.00;99.90
16076;DHT22;8142;48.242;11.644;2023-03-14T12:49:45;12.00;99.90
16076;DHT22;8142;48.242;11.644;2023-03-14T12:52:48;12.10;99.90
16076;DHT22;8142;48.242;11.644;2023-03-14T12:55:24;12.20;99.90
16076;DHT22;8142;48.242;11.644;2023-03-14T12:59:16;12.20;99.90
16076;DHT22;8142;48.242;11.644;2023-03-14T13:01:18;12.20;99.90
16076;DHT22;8142;48.242;11.644;2023-03-14T13:03:55;12.30;99.90
16076;DHT22;8142;48.242;11.644;2023-03-14T13:07:01;12.30;99.90
16076;DHT22;8142;48.242;11.644;2023-03-14T13:12:09;12.20;99.90
16076;DHT22;8142;48.242;11.644;2023-03-14T13:14:40;12.20;99.90
16076;DHT22;8142;48.242;11.644;2023-03-14T13:17:11;12.20;99.90
16076;DHT22;8142;48.242;11.644;2023-03-14T13:19:38;12.20;99.90
16076;DHT22;8142;48.242;11.644;2023-03-14T13:22:12;12.20;99.90
16076;DHT22;8142;48.242;11.644;2023-03-14T13:24:41;12.20;99.90
16076;DHT22;8142;48.242;11.644;2023-03-14T13:27:18;12.10;99.90
16076;DHT22;8142;48.242;11.644;2023-03-14T13:29:49;12.10;99.90
16076;DHT22;8142;48.242;11.644;2023-03-14T13:32:26;12.10;99.90
16076;DHT22;8142;48.242;11.644;2023-03-14T13:34:56;12.10;99.90
16076;DHT22;8142;48.242;11.644;2023-03-14T13:37:24;12.10;99.90
16076;DHT22;8142;48.242;11.644;2023-03-14T13:39:52;12.00;99.90
16076;DHT22;8142;48.242;11.644;2023-03-14T13:42:19;12.00;99.90
16076;DHT22;8142;48.242;11.644;2023-03-14T13:44:45;11.90;99.90
16076;DHT22;8142;48.242;11.644;2023-03-14T13:47:15;11.80;99.90
16076;DHT22;8142;48.242;11.644;2023-03-14T13:49:43;11.70;99.90
16076;DHT22;8142;48.242;11.644;2023-03-14T13:54:56;11.60;99.90
16076;DHT22;8142;48.242;11.644;2023-03-14T13:57:23;11.40;99.90
16076;DHT22;8142;48.242;11.644;2023-03-14T14:00:04;11.20;99.90
16076;DHT22;8142;48.242;11.644;2023-03-14T14:02:38;11.10;99.90
16076;DHT22;8142;48.242;11.644;2023-03-14T14:05:04;11.00;99.90
16076;DHT22;8142;48.242;11.644;2023-03-14T14:07:31;10.90;99.90
16076;DHT22;8142;48.242;11.644;2023-03-14T14:09:59;10.80;99.90
16076;DHT22;8142;48.242;11.644;2023-03-14T14:12:29;10.70;99.90
16076;DHT22;8142;48.242;11.644;2023-03-14T14:15:04;10.60;99.90
16076;DHT22;8142;48.242;11.644;2023-03-14T14:17:36;10.50;99.90
16076;DHT22;8142;48.242;11.644;2023-03-14T14:20:07;10.40;99.90
16076;DHT22;8142;48.242;11.644;2023-03-14T14:22:33;10.30;99.90
16076;DHT22;8142;48.242;11.644;2023-03-14T14:25:00;10.20;99.90
16076;DHT22;8142;48.242;11.644;2023-03-14T14:27:42;10.10;99.90
16076;DHT22;8142;48.242;11.644;2023-03-14T14:32:43;9.90;99.90
16076;DHT22;8142;48.242;11.644;2023-03-14T14:37:49;9.80;99.90
16076;DHT22;8142;48.242;11.644;2023-03-14T14:40:25;9.70;99.90
16076;DHT22;8142;48.242;11.644;2023-03-14T14:42:51;9.70;99.90
16076;DHT22;8142;48.242;11.644;2023-03-14T14:45:22;9.60;99.90
16076;DHT22;8142;48.242;11.644;2023-03-14T14:50:38;9.40;99.90
16076;DHT22;8142;48.242;11.644;2023-03-14T14:53:40;9.30;99.90
16076;DHT22;8142;48.242;11.644;2023-03-14T14:56:17;9.20;99.90
16076;DHT22;8142;48.242;11.644;2023-03-14T14:58:47;9.00;99.90
16076;DHT22;8142;48.242;11.644;2023-03-14T15:01:24;8.90;99.90
16076;DHT22;8142;48.242;11.644;2023-03-14T15:03:53;8.80;99.90
16076;DHT22;8142;48.242;11.644;2023-03-14T15:06:20;8.70;99.90
16076;DHT22;8142;48.242;11.644;2023-03-14T15:08:47;8.60;99.90
16076;DHT22;8142;48.242;11.644;2023-03-14T15:11:17;8.70;99.90
16076;DHT22;8142;48.242;11.644;2023-03-14T15:13:44;8.70;99.90
16076;DHT22;8142;48.242;11.644;2023-03-14T15:16:15;8.60;99.90
16076;DHT22;8142;48.242;11.644;2023-03-14T15:18:42;8.60;99.90
16076;DHT22;8142;48.242;11.644;2023-03-14T15:21:11;8.60;99.90
16076;DHT22;8142;48.242;11.644;2023-03-14T15:23:37;8.60;99.90
16076;DHT22;8142;48.242;11.644;2023-03-14T15:26:12;8.60;99.90
16076;DHT22;8142;48.242;11.644;2023-03-14T15:28:39;8.60;99.90
16076;DHT22;8142;48.242;11.644;2023-03-14T15:31:05;8.50;99.90
16076;DHT22;8142;48.242;11.644;2023-03-14T15:33:30;8.40;99.90
16076;DHT22;8142;48.242;11.644;2023-03-14T15:35:56;8.40;99.90
16076;DHT22;8142;48.242;11.644;2023-03-14T15:38:22;8.20;99.90
16076;DHT22;8142;48.242;11.644;2023-03-14T15:40:51;8.30;99.90
16076;DHT22;8142;48.242;11.644;2023-03-14T15:43:18;8.20;99.90
16076;DHT22;8142;48.242;11.644;2023-03-14T15:45:45;8.20;99.90
16076;DHT22;8142;48.242;11.644;2023-03-14T15:48:18;8.20;99.90
16076;DHT22;8142;48.242;11.644;2023-03-14T15:50:45;8.20;99.90
16076;DHT22;8142;48.242;11.644;2023-03-14T15:53:12;8.20;99.90
16076;DHT22;8142;48.242;11.644;2023-03-14T15:55:38;8.20;99.90
16076;DHT22;8142;48.242;11.644;2023-03-14T15:58:04;8.20;99.90
16076;DHT22;8142;48.242;11.644;2023-03-14T16:00:30;8.20;99.90
16076;DHT22;8142;48.242;11.644;2023-03-14T16:02:56;8.20;99.90
16076;DHT22;8142;48.242;11.644;2023-03-14T16:05:22;8.20;99.90
16076;DHT22;8142;48.242;11.644;2023-03-14T16:07:48;8.20;99.90
16076;DHT22;8142;48.242;11.644;2023-03-14T16:10:15;8.20;99.90
16076;DHT22;8142;48.242;11.644;2023-03-14T16:12:41;8.10;99.90
16076;DHT22;8142;48.242;11.644;2023-03-14T16:15:08;8.10;99.90
16076;DHT22;8142;48.242;11.644;2023-03-14T16:17:34;8.00;99.90
16076;DHT22;8142;48.242;11.644;2023-03-14T16:20:00;8.00;99.90
16076;DHT22;8142;48.242;11.644;2023-03-14T16:22:26;8.00;99.90
16076;DHT22;8142;48.242;11.644;2023-03-14T16:24:52;7.90;99.90
16076;DHT22;8142;48.242;11.644;2023-03-14T16:27:18;7.90;99.90
16076;DHT22;8142;48.242;11.644;2023-03-14T16:29:44;7.90;99.90
16076;DHT22;8142;48.242;11.644;2023-03-14T16:32:11;7.90;99.90
16076;DHT22;8142;48.242;11.644;2023-03-14T16:34:38;7.80;99.90
16076;DHT22;8142;48.242;11.644;2023-03-14T16:37:05;7.80;99.90
16076;DHT22;8142;48.242;11.644;2023-03-14T16:39:30;7.80;99.90
16076;DHT22;8142;48.242;11.644;2023-03-14T16:41:57;7.80;99.90
16076;DHT22;8142;48.242;11.644;2023-03-14T16:44:23;7.80;99.90
16076;DHT22;8142;48.242;11.644;2023-03-14T16:46:50;7.80;99.90
16076;DHT22;8142;48.242;11.644;2023-03-14T16:49:15;7.70;99.90
16076;DHT22;8142;48.242;11.644;2023-03-14T16:51:41;7.70;99.90
16076;DHT22;8142;48.242;11.644;2023-03-14T16:54:08;7.70;99.90
16076;DHT22;8142;48.242;11.644;2023-03-14T16:56:34;7.70;99.90
16076;DHT22;8142;48.242;11.644;2023-03-14T16:59:00;7.70;99.90
16076;DHT22;8142;48.242;11.644;2023-03-14T17:01:26;7.70;99.90
16076;DHT22;8142;48.242;11.644;2023-03-14T17:03:52;7.60;99.90
16076;DHT22;8142;48.242;11.644;2023-03-14T17:06:20;7.60;99.90
16076;DHT22;8142;48.242;11.644;2023-03-14T17:08:48;7.60;99.90